Time;durP1;ratioP1;P1;durP2;ratioP2;P2;SDS_P1;SDS_P2;PMS_P1;PMS_P2;Temp;Humidity;BMP_temperature;BMP_pressure;BME280_temperature;BME280_humidity;BME280_pressure;Samples;Min_cycle;Max_cycle;Signal;HPM_P1;HPM_P2
2021/03/08 00:01:18;;;;;;;7.77;4.50;;;;;;;-0.72;73.32;99973.56;124819;1105;104133;-79
2021/03/08 00:03:45;;;;;;;7.10;4.37;;;;;;;-0.75;73.08;99977.78;124569;1106;104111;-77
2021/03/08 00:06:13;;;;;;;9.57;4.80;;;;;;;-0.79;73.15;99971.78;124596;1105;104108;-77
2021/03/08 00:08:40;;;;;;;8.35;4.65;;;;;;;-0.84;72.73;99993.08;124582;1105;104335;-78
2021/03/08 00:11:07;;;;;;;7.13;4.30;;;;;;;-0.90;73.60;99983.61;124523;1106;104207;-77
2021/03/08 00:13:34;;;;;;;7.95;4.62;;;;;;;-0.97;73.63;99990.38;124511;1106;104137;-77
2021/03/08 00:16:01;;;;;;;9.03;4.67;;;;;;;-1.01;73.70;99992.90;124622;1105;104188;-77
2021/03/08 00:18:29;;;;;;;6.33;4.67;;;;;;;-1.05;73.37;99983.48;124753;1106;102385;-77
2021/03/08 00:20:56;;;;;;;7.28;4.72;;;;;;;-1.08;73.15;99991.09;124568;1105;104216;-78
2021/03/08 00:23:24;;;;;;;7.73;4.80;;;;;;;-1.13;73.32;99993.62;124583;1105;103973;-77
2021/03/08 00:25:51;;;;;;;8.57;4.90;;;;;;;-1.16;73.58;99985.91;124619;1105;104226;-77
2021/03/08 00:28:18;;;;;;;8.53;5.57;;;;;;;-1.21;73.79;99982.45;124616;1106;104185;-77
2021/03/08 00:30:45;;;;;;;9.03;5.78;;;;;;;-1.25;73.99;99986.69;124600;1105;104310;-76
2021/03/08 00:33:12;;;;;;;10.53;5.67;;;;;;;-1.28;74.33;99981.51;124624;1106;103941;-77
2021/03/08 00:35:39;;;;;;;10.07;5.33;;;;;;;-1.32;74.03;99981.46;124563;1109;104162;-78
2021/03/08 00:38:07;;;;;;;8.93;5.67;;;;;;;-1.35;74.24;99977.17;124767;1105;104258;-77
2021/03/08 00:40:34;;;;;;;9.00;5.40;;;;;;;-1.38;74.37;99984.81;124676;1105;104188;-77
2021/03/08 00:43:01;;;;;;;10.67;5.50;;;;;;;-1.40;74.47;99978.83;124527;1105;104267;-76
2021/03/08 00:45:28;;;;;;;10.10;6.43;;;;;;;-1.43;73.82;99972.83;124570;1106;104214;-78
2021/03/08 00:48:02;;;;;;;8.67;6.07;;;;;;;-1.46;74.68;99982.99;124573;1106;104346;-77
2021/03/08 00:50:31;;;;;;;12.10;6.70;;;;;;;-1.50;74.21;99969.31;124584;1109;104168;-77
2021/03/08 00:52:58;;;;;;;17.40;8.30;;;;;;;-1.55;74.70;99973.52;124595;1109;104626;-77
2021/03/08 00:55:29;;;;;;;9.10;6.20;;;;;;;-1.57;74.41;99982.88;124568;1109;104169;-78
2021/03/08 00:57:57;;;;;;;10.07;6.60;;;;;;;-1.61;74.86;99981.13;124600;1109;104239;-78
2021/03/08 01:00:27;;;;;;;11.27;6.20;;;;;;;-1.65;74.55;99975.09;124611;1105;104137;-77
2021/03/08 01:02:57;;;;;;;10.40;6.07;;;;;;;-1.69;74.58;99968.23;124898;1105;104284;-78
2021/03/08 01:05:26;;;;;;;9.43;5.90;;;;;;;-1.72;75.28;99967.34;124586;1106;104564;-78
2021/03/08 01:07:54;;;;;;;14.63;6.10;;;;;;;-1.75;74.95;99967.31;124584;1105;104085;-78
2021/03/08 01:10:28;;;;;;;8.60;6.10;;;;;;;-1.79;75.29;99966.42;124536;1106;104274;-78
2021/03/08 01:12:56;;;;;;;9.50;6.13;;;;;;;-1.81;74.89;99962.95;124531;1106;103935;-78
2021/03/08 01:15:25;;;;;;;9.37;5.87;;;;;;;-1.84;75.15;99966.33;124598;1106;104160;-77
2021/03/08 01:17:52;;;;;;;9.87;6.07;;;;;;;-1.85;74.55;99961.20;124553;1106;104283;-78
2021/03/08 01:20:21;;;;;;;8.60;5.70;;;;;;;-1.89;75.71;99967.98;124553;1105;104142;-77
2021/03/08 01:22:48;;;;;;;12.55;6.30;;;;;;;-1.90;75.55;99963.70;124551;1109;104159;-78
2021/03/08 01:25:27;;;;;;;9.83;5.90;;;;;;;-1.91;75.38;99961.98;124620;1106;104175;-77
2021/03/08 01:27:55;;;;;;;9.70;6.40;;;;;;;-1.90;75.75;99960.29;124833;1105;104108;-78
2021/03/08 01:30:40;;;;;;;10.30;6.20;;;;;;;-1.92;75.64;99955.16;124576;1105;104560;-78
2021/03/08 01:33:08;;;;;;;10.40;6.10;;;;;;;-1.92;74.93;99957.72;124594;1109;104685;-77
2021/03/08 01:35:36;;;;;;;12.73;6.50;;;;;;;-1.93;75.12;99956.00;124577;1106;104146;-77
2021/03/08 01:38:04;;;;;;;9.43;6.23;;;;;;;-1.93;75.33;99953.45;124555;1106;104133;-78
2021/03/08 01:40:34;;;;;;;8.90;5.97;;;;;;;-1.93;75.69;99957.70;124754;1105;104139;-76
2021/03/08 01:43:01;;;;;;;12.17;7.30;;;;;;;-1.96;75.35;99953.41;124579;1109;104111;-77
2021/03/08 01:45:28;;;;;;;12.23;6.92;;;;;;;-1.98;75.63;99957.61;124517;1106;104338;-77
2021/03/08 01:47:55;;;;;;;11.45;6.70;;;;;;;-1.99;75.35;99963.56;124563;1105;104201;-77
2021/03/08 01:50:35;;;;;;;11.10;6.40;;;;;;;-2.01;75.88;99961.83;124559;1105;104156;-77
2021/03/08 01:53:04;;;;;;;11.40;6.70;;;;;;;-2.03;75.62;99959.26;124801;1105;104222;-77
2021/03/08 01:55:33;;;;;;;11.17;6.63;;;;;;;-2.06;75.51;99964.33;124601;1105;104267;-77
2021/03/08 01:58:01;;;;;;;12.10;6.57;;;;;;;-2.08;75.89;99963.45;124593;1106;104268;-78
2021/03/08 02:00:30;;;;;;;9.97;5.87;;;;;;;-2.10;75.54;99962.58;124591;1106;104206;-78
2021/03/08 02:02:59;;;;;;;10.87;6.03;;;;;;;-2.14;76.62;99973.59;124533;1109;104400;-77
2021/03/08 02:05:28;;;;;;;10.60;6.03;;;;;;;-2.16;75.84;99972.69;124622;1105;104312;-77
2021/03/08 02:07:56;;;;;;;10.17;6.67;;;;;;;-2.18;75.90;99970.11;124605;1105;104262;-77
2021/03/08 02:10:27;;;;;;;11.40;6.40;;;;;;;-2.20;76.04;99978.59;124528;1106;104246;-77
2021/03/08 02:13:19;;;;;;;13.70;6.53;;;;;;;-2.22;76.24;99980.27;124775;1105;104299;-78
2021/03/08 02:16:01;;;;;;;10.30;6.47;;;;;;;-2.25;76.04;99981.09;124785;1106;104028;-77
2021/03/08 02:18:43;;;;;;;11.03;6.93;;;;;;;-2.28;75.85;99992.96;124613;1106;104261;-77
2021/03/08 02:21:35;;;;;;;10.30;6.43;;;;;;;-2.29;76.12;99993.80;124624;1105;104389;-78
2021/03/08 02:24:10;;;;;;;10.47;6.20;;;;;;;-2.31;76.50;99995.47;124662;1105;104203;-77
2021/03/08 02:26:47;;;;;;;9.07;6.70;;;;;;;-2.33;76.43;99986.93;124803;1105;104248;-77
2021/03/08 02:29:25;;;;;;;9.77;6.67;;;;;;;-2.37;76.49;99993.66;124589;1106;104204;-78
2021/03/08 02:31:57;;;;;;;10.53;6.53;;;;;;;-2.39;76.52;99991.92;124561;1105;104195;-77
2021/03/08 02:34:30;;;;;;;9.93;5.93;;;;;;;-2.41;76.80;99996.15;124606;1106;104126;-77
2021/03/08 02:37:02;;;;;;;11.90;6.60;;;;;;;-2.45;76.37;99996.11;124576;1105;104181;-77
2021/03/08 02:39:32;;;;;;;10.53;6.43;;;;;;;-2.45;76.36;100001.21;124605;1105;104204;-78
2021/03/08 02:42:03;;;;;;;10.57;6.43;;;;;;;-2.47;77.08;99996.92;124595;1105;104191;-78
2021/03/08 02:44:36;;;;;;;10.60;6.53;;;;;;;-2.50;76.53;99997.73;124598;1105;104162;-77
2021/03/08 02:47:04;;;;;;;11.23;6.70;;;;;;;-2.54;77.10;100003.59;124566;1105;104265;-78
2021/03/08 02:49:34;;;;;;;11.97;7.27;;;;;;;-2.56;77.04;100007.83;124544;1106;104278;-78
2021/03/08 02:52:10;;;;;;;10.77;6.47;;;;;;;-2.59;76.58;100010.33;124578;1105;104198;-78
2021/03/08 02:54:41;;;;;;;10.85;7.00;;;;;;;-2.61;77.44;100014.56;124601;1105;104214;-78
2021/03/08 02:57:10;;;;;;;11.77;7.63;;;;;;;-2.62;77.15;100019.64;124577;1105;104621;-78
2021/03/08 02:59:45;;;;;;;9.40;6.20;;;;;;;-2.65;77.07;100020.45;124855;1105;104264;-77
2021/03/08 03:02:13;;;;;;;11.37;6.77;;;;;;;-2.67;77.29;100027.23;124512;1106;103967;-77
2021/03/08 03:04:41;;;;;;;11.10;6.77;;;;;;;-2.70;77.23;100027.14;124612;1105;104268;-77
2021/03/08 03:07:10;;;;;;;14.50;7.27;;;;;;;-2.70;76.91;100031.39;124639;1105;104288;-77
2021/03/08 03:09:40;;;;;;;11.80;7.70;;;;;;;-2.71;77.14;100033.09;124577;1105;104162;-78
2021/03/08 03:12:10;;;;;;;10.57;7.33;;;;;;;-2.71;77.47;100044.99;124568;1105;104294;-77
2021/03/08 03:14:39;;;;;;;11.27;7.30;;;;;;;-2.72;77.52;100041.58;124503;1105;104319;-76
2021/03/08 03:17:09;;;;;;;13.67;7.10;;;;;;;-2.74;77.43;100041.55;124566;1105;104198;-77
2021/03/08 03:19:46;;;;;;;12.67;7.53;;;;;;;-2.75;77.58;100050.05;124623;1109;104105;-77
2021/03/08 03:22:13;;;;;;;;;;;;;;;-2.75;77.61;100054.30;124589;1105;104101;-77
2021/03/08 03:24:41;;;;;;;12.60;7.27;;;;;;;-2.76;77.39;100057.68;124565;1106;104214;-78
2021/03/08 03:27:14;;;;;;;13.67;8.03;;;;;;;-2.78;77.40;100060.20;124644;1105;104255;-77
2021/03/08 03:29:42;;;;;;;11.93;7.37;;;;;;;-2.78;77.31;100054.23;124605;1108;103993;-77
2021/03/08 03:32:10;;;;;;;16.00;8.93;;;;;;;-2.77;76.89;100058.52;124667;1106;104014;-78
2021/03/08 03:34:38;;;;;;;13.33;7.90;;;;;;;-2.78;77.50;100059.34;124630;1105;102904;-77
2021/03/08 03:37:05;;;;;;;14.00;8.10;;;;;;;-2.79;77.48;100060.18;124588;1109;104265;-76
2021/03/08 03:39:33;;;;;;;11.57;7.83;;;;;;;-2.79;77.43;100071.25;124550;1108;104162;-77
2021/03/08 03:42:01;;;;;;;14.20;8.00;;;;;;;-2.80;77.39;100066.12;124586;1106;104146;-77
2021/03/08 03:44:28;;;;;;;14.67;8.30;;;;;;;-2.81;77.15;100072.05;124526;1105;104188;-77
2021/03/08 03:46:57;;;;;;;11.83;7.50;;;;;;;-2.83;76.99;100068.62;124568;1105;104150;-77
2021/03/08 03:49:24;;;;;;;13.63;8.37;;;;;;;-2.85;77.22;100075.39;124783;1104;103382;-77
2021/03/08 03:51:52;;;;;;;13.27;7.77;;;;;;;-2.87;77.45;100079.58;124527;1105;104239;-77
2021/03/08 03:54:19;;;;;;;12.17;8.10;;;;;;;-2.89;77.52;100077.00;124619;1106;104233;-77
2021/03/08 03:56:53;;;;;;;16.40;8.97;;;;;;;-2.88;77.54;100080.41;124601;1109;105191;-77
2021/03/08 03:59:25;;;;;;;14.80;8.93;;;;;;;-2.90;77.68;100082.94;124571;1105;104179;-77
2021/03/08 04:02:04;;;;;;;13.83;8.07;;;;;;;-2.91;77.49;100082.91;124590;1105;104219;-77
2021/03/08 04:04:46;;;;;;;15.53;9.10;;;;;;;-2.92;76.92;100089.70;124768;1105;104277;-77
2021/03/08 04:07:14;;;;;;;15.53;8.33;;;;;;;-2.95;77.40;100083.69;124690;1105;104207;-77
2021/03/08 04:09:54;;;;;;;15.00;7.93;;;;;;;-2.96;77.31;100089.62;124629;1105;104130;-78
2021/03/08 04:12:34;;;;;;;14.83;8.80;;;;;;;-3.00;77.58;100093.81;124595;1105;104172;-77
2021/03/08 04:15:06;;;;;;;15.70;8.70;;;;;;;-3.03;77.04;100087.79;124580;1108;103664;-77
2021/03/08 04:17:41;;;;;;;14.17;8.60;;;;;;;-3.05;77.08;100088.63;124801;1105;105547;-77
2021/03/08 04:20:16;;;;;;;18.50;9.20;;;;;;;-3.07;77.19;100095.36;124567;1105;104207;-77
2021/03/08 04:22:51;;;;;;;14.40;8.77;;;;;;;-3.08;77.32;100092.78;124629;1109;104701;-77
2021/03/08 04:25:19;;;;;;;15.13;8.63;;;;;;;-3.11;77.64;100100.38;124614;1109;104155;-77
2021/03/08 04:27:48;;;;;;;14.60;8.60;;;;;;;-3.12;77.57;100094.41;124560;1105;104193;-77
2021/03/08 04:30:17;;;;;;;16.00;8.80;;;;;;;-3.14;77.63;100098.63;124565;1109;104380;-77
2021/03/08 04:32:51;;;;;;;16.50;8.60;;;;;;;-3.16;77.62;100101.98;124570;1105;104181;-77
2021/03/08 04:35:20;;;;;;;17.10;9.13;;;;;;;-3.18;78.01;100095.99;124551;1106;104178;-77
2021/03/08 04:37:49;;;;;;;13.77;9.00;;;;;;;-3.20;77.32;100100.20;124588;1105;104213;-77
2021/03/08 04:40:17;;;;;;;14.73;8.80;;;;;;;-3.22;77.83;100097.63;124587;1105;104215;-77
2021/03/08 04:42:46;;;;;;;15.30;9.80;;;;;;;-3.23;77.29;100100.11;124519;1106;104358;-77
2021/03/08 04:45:17;;;;;;;16.13;10.00;;;;;;;-3.25;77.92;100107.73;124783;1105;104277;-78
2021/03/08 04:47:46;;;;;;;16.05;10.20;;;;;;;-3.25;77.12;100112.84;124610;1105;103825;-77
2021/03/08 04:50:15;;;;;;;20.73;10.90;;;;;;;-3.27;77.59;100114.50;124626;1105;103194;-78
2021/03/08 04:52:47;;;;;;;22.20;11.40;;;;;;;-3.29;77.64;100105.95;124636;1105;104204;-76
2021/03/08 04:55:15;;;;;;;19.00;10.30;;;;;;;-3.30;77.73;100111.02;124530;1105;104201;-77
2021/03/08 04:57:43;;;;;;;19.90;10.37;;;;;;;-3.30;77.92;100114.44;124619;1106;103989;-77
2021/03/08 05:00:12;;;;;;;16.23;9.70;;;;;;;-3.31;77.43;100122.05;124619;1106;104102;-78
2021/03/08 05:02:42;;;;;;;18.90;10.73;;;;;;;-3.30;78.06;100118.67;124614;1106;103223;-77
2021/03/08 05:05:20;;;;;;;19.80;10.57;;;;;;;-3.30;77.77;100124.63;124560;1109;104137;-77
2021/03/08 05:07:50;;;;;;;16.60;9.53;;;;;;;-3.30;77.15;100116.98;124502;1109;103976;-76
2021/03/08 05:10:19;;;;;;;16.63;9.07;;;;;;;-3.31;77.75;100122.05;124533;1105;104242;-77
2021/03/08 05:12:52;;;;;;;18.43;9.00;;;;;;;-3.31;77.19;100116.95;124599;1106;104668;-77
2021/03/08 05:15:20;;;;;;;14.83;8.30;;;;;;;-3.30;77.36;100123.78;124603;1105;104625;-78
2021/03/08 05:17:51;;;;;;;18.90;8.73;;;;;;;-3.29;77.39;100122.95;124874;1105;104262;-77
2021/03/08 05:20:19;;;;;;;13.93;8.57;;;;;;;-3.27;77.79;100126.38;124489;1106;104258;-77
2021/03/08 05:22:47;;;;;;;16.93;9.00;;;;;;;-3.22;77.73;100130.78;124699;1105;104634;-78
2021/03/08 05:25:14;;;;;;;17.30;8.83;;;;;;;-3.13;77.31;100130.95;124594;1105;104217;-76
2021/03/08 05:27:45;;;;;;;13.77;8.47;;;;;;;-3.00;77.43;100133.77;124825;1105;105258;-77
2021/03/08 05:30:18;;;;;;;13.67;7.93;;;;;;;-2.83;77.77;100132.42;124603;1109;104300;-78
2021/03/08 05:33:11;;;;;;;11.30;7.30;;;;;;;-2.55;77.06;100129.55;124501;1105;104141;-77
2021/03/08 05:35:41;;;;;;;;;;;;;;;-2.23;76.02;100127.58;124578;1105;104169;-77
2021/03/08 05:38:09;;;;;;;13.57;7.53;;;;;;;-1.94;75.82;100130.64;124728;1105;104143;-77
2021/03/08 05:40:50;;;;;;;16.93;8.13;;;;;;;-1.67;75.84;100124.22;124634;1105;104222;-77
2021/03/08 05:43:18;;;;;;;14.73;7.53;;;;;;;-1.36;75.49;100130.66;124550;1106;104235;-77
2021/03/08 05:46:08;;;;;;;13.77;7.47;;;;;;;-1.06;75.41;100125.09;124605;1106;104012;-77
2021/03/08 05:49:25;;;;;;;16.70;7.60;;;;;;;-0.73;75.22;100119.50;124607;1106;104269;-77
2021/03/08 05:52:23;;;;;;;12.37;6.83;;;;;;;-0.39;74.05;100126.70;124500;1109;104207;-77
2021/03/08 05:55:09;;;;;;;;;;;;;;;-0.04;73.68;100128.73;124556;1108;104127;-77
2021/03/08 05:57:41;;;;;;;12.07;7.07;;;;;;;0.29;73.00;100133.28;124548;1109;102992;-77
2021/03/08 06:00:34;;;;;;;12.77;7.13;;;;;;;0.67;72.60;100138.67;124499;1109;102987;-78
2021/03/08 06:03:29;;;;;;;14.40;7.00;;;;;;;1.16;71.21;100146.64;124354;1109;104121;-77
2021/03/08 06:06:14;;;;;;;14.13;6.80;;;;;;;1.55;70.27;100145.92;124327;1109;104233;-78
2021/03/08 06:09:10;;;;;;;14.30;7.33;;;;;;;2.10;70.19;100149.44;124515;1109;104283;-77
2021/03/08 06:11:43;;;;;;;12.47;6.80;;;;;;;2.94;68.50;100153.65;124518;1109;104156;-77
2021/03/08 06:14:14;;;;;;;10.37;6.67;;;;;;;3.81;66.81;100151.55;124476;1109;104284;-78
2021/03/08 06:16:42;;;;;;;11.73;6.80;;;;;;;4.76;64.58;100155.93;124530;1109;103531;-77
2021/03/08 06:19:09;;;;;;;10.93;6.23;;;;;;;5.71;62.97;100150.48;124249;1109;104206;-78
2021/03/08 06:21:37;;;;;;;14.93;8.33;;;;;;;6.81;61.89;100144.41;124491;1109;104203;-78
2021/03/08 06:24:06;;;;;;;14.20;7.23;;;;;;;7.95;59.12;100143.78;124541;1108;104342;-77
2021/03/08 06:26:33;;;;;;;8.30;5.30;;;;;;;9.18;57.66;100146.75;124471;1109;104139;-77
2021/03/08 06:29:00;;;;;;;7.77;4.97;;;;;;;10.45;56.44;100135.92;124595;1105;104252;-76
2021/03/08 06:31:28;;;;;;;7.43;4.77;;;;;;;11.47;54.59;100127.89;124592;1105;104576;-76
2021/03/08 06:33:58;;;;;;;6.80;4.27;;;;;;;12.84;53.72;100134.59;124633;1105;104143;-77
2021/03/08 06:36:26;;;;;;;8.20;5.23;;;;;;;14.13;51.51;100134.81;124540;1109;105326;-77
2021/03/08 06:38:53;;;;;;;9.07;4.60;;;;;;;15.28;49.93;100138.59;124564;1106;104256;-77
2021/03/08 06:41:21;;;;;;;8.30;4.43;;;;;;;16.18;48.38;100133.64;124523;1106;104194;-77
2021/03/08 06:43:49;;;;;;;8.40;4.87;;;;;;;16.90;46.03;100130.31;124519;1105;104426;-77
2021/03/08 06:46:16;;;;;;;8.30;5.63;;;;;;;17.58;44.67;100132.26;124794;1105;104181;-77
2021/03/08 06:48:45;;;;;;;6.47;4.33;;;;;;;18.25;43.67;100132.40;124594;1105;105543;-78
2021/03/08 06:51:17;;;;;;;6.50;4.30;;;;;;;19.02;42.19;100134.24;124536;1106;102610;-76
2021/03/08 06:53:46;;;;;;;5.93;4.20;;;;;;;19.49;41.38;100138.87;124541;1106;104072;-80
2021/03/08 06:56:25;;;;;;;7.83;4.50;;;;;;;20.00;40.89;100130.83;124731;1105;104136;-79
2021/03/08 06:59:13;;;;;;;6.20;3.70;;;;;;;20.42;39.64;100126.83;124526;1109;103016;-79
2021/03/08 07:01:41;;;;;;;7.20;4.13;;;;;;;20.83;38.55;100130.83;124731;1105;105015;-79
2021/03/08 07:04:18;;;;;;;5.33;3.13;;;;;;;21.08;36.93;100146.52;124524;1105;104258;-78
2021/03/08 07:07:04;;;;;;;5.47;3.40;;;;;;;21.27;35.79;100139.81;124499;1106;104528;-79
2021/03/08 07:09:33;;;;;;;5.33;3.30;;;;;;;21.50;35.19;100138.84;124576;1105;104099;-79
2021/03/08 07:12:10;;;;;;;5.03;3.00;;;;;;;21.63;32.90;100136.91;124585;1109;104166;-80
2021/03/08 07:14:39;;;;;;;5.00;3.60;;;;;;;21.76;33.33;100135.94;124524;1109;104165;-79
2021/03/08 07:17:31;;;;;;;4.20;3.17;;;;;;;21.97;33.17;100136.86;124583;1105;104169;-80
2021/03/08 07:20:05;;;;;;;4.67;3.13;;;;;;;22.22;31.79;100138.37;124767;1105;104194;-79
2021/03/08 07:22:52;;;;;;;6.60;4.20;;;;;;;22.34;31.12;100140.02;124611;1106;104229;-80
2021/03/08 07:25:30;;;;;;;5.67;3.50;;;;;;;22.33;31.23;100135.68;124519;1108;105744;-79
2021/03/08 07:28:00;;;;;;;5.93;3.60;;;;;;;22.42;31.10;100137.56;124595;1105;104318;-79
2021/03/08 07:30:36;;;;;;;5.77;3.33;;;;;;;22.65;30.18;100134.81;124554;1105;104571;-80
2021/03/08 07:33:10;;;;;;;;;;;;;;;22.90;30.53;100140.61;124643;1106;104136;-79
2021/03/08 07:35:44;;;;;;;4.73;3.27;;;;;;;23.08;30.01;100147.98;124732;1105;104267;-80
2021/03/08 07:38:14;;;;;;;6.73;3.93;;;;;;;23.18;28.39;100143.58;124570;1106;104217;-79
2021/03/08 07:40:45;;;;;;;7.43;3.10;;;;;;;23.48;29.43;100140.89;124582;1105;103033;-79
2021/03/08 07:43:23;;;;;;;4.63;3.23;;;;;;;23.29;28.32;100143.47;124510;1105;102946;-79
2021/03/08 07:45:52;;;;;;;4.87;3.07;;;;;;;21.68;27.56;100145.34;124531;1109;104144;-80
2021/03/08 07:48:20;;;;;;;6.60;4.90;;;;;;;21.00;29.00;100154.20;124581;1106;104114;-79
2021/03/08 07:50:50;;;;;;;6.60;3.33;;;;;;;21.34;28.59;100148.97;124627;1105;104111;-80
2021/03/08 07:53:34;;;;;;;5.03;3.40;;;;;;;21.70;27.76;100148.71;124615;1105;104137;-80
2021/03/08 07:56:06;;;;;;;3.80;2.93;;;;;;;22.24;28.16;100149.70;124629;1106;104364;-80
2021/03/08 07:58:35;;;;;;;5.37;3.47;;;;;;;22.40;27.36;100149.30;124634;1105;104222;-80
2021/03/08 08:01:07;;;;;;;6.97;4.37;;;;;;;22.72;27.60;100166.06;124623;1105;104236;-79
2021/03/08 08:03:36;;;;;;;6.70;3.50;;;;;;;22.18;27.09;100153.72;124626;1109;104213;-80
2021/03/08 08:06:09;;;;;;;5.23;3.40;;;;;;;22.41;27.73;100151.82;125005;1106;104216;-80
2021/03/08 08:08:38;;;;;;;5.33;3.57;;;;;;;22.84;27.50;100157.09;124540;1109;104610;-80
2021/03/08 08:11:06;;;;;;;5.60;3.10;;;;;;;22.87;27.62;100159.48;124816;1105;104169;-80
2021/03/08 08:13:39;;;;;;;5.90;3.10;;;;;;;23.38;26.97;100163.14;124589;1106;104184;-80
2021/03/08 08:16:08;;;;;;;4.00;2.87;;;;;;;23.57;26.51;100162.41;124718;1105;104280;-80
2021/03/08 08:18:41;;;;;;;5.97;2.90;;;;;;;23.64;25.69;100166.20;124797;1109;103723;-80
2021/03/08 08:21:17;;;;;;;4.23;2.60;;;;;;;23.88;25.62;100161.39;124702;1106;104293;-81
2021/03/08 08:23:48;;;;;;;4.20;2.73;;;;;;;23.94;25.43;100163.50;124773;1105;104222;-80
2021/03/08 08:26:18;;;;;;;6.97;4.43;;;;;;;23.65;25.33;100162.56;124590;1109;104131;-80
2021/03/08 08:28:47;;;;;;;6.03;3.50;;;;;;;23.26;25.75;100178.34;124592;1109;104258;-81
2021/03/08 08:31:14;;;;;;;4.27;2.77;;;;;;;23.44;25.04;100168.76;124576;1105;104110;-80
2021/03/08 08:33:42;;;;;;;4.97;2.80;;;;;;;23.20;24.29;100176.21;124537;1105;103056;-80
2021/03/08 08:36:24;;;;;;;4.93;2.87;;;;;;;22.33;24.74;100175.53;124612;1105;104130;-80
2021/03/08 08:38:54;;;;;;;5.00;2.47;;;;;;;20.83;25.08;100189.14;124578;1106;104192;-80
2021/03/08 08:41:27;;;;;;;5.85;3.10;;;;;;;19.16;25.52;100179.09;124647;1105;104284;-80
2021/03/08 08:44:09;;;;;;;3.47;2.30;;;;;;;18.27;26.30;100194.70;124701;1105;104146;-79
2021/03/08 08:46:42;;;;;;;4.23;2.33;;;;;;;17.12;26.88;100193.09;124331;1105;107325;-80
2021/03/08 08:49:20;;;;;;;5.75;2.60;;;;;;;16.44;27.74;100197.09;124619;1109;104252;-80
2021/03/08 08:51:53;;;;;;;4.50;2.47;;;;;;;15.78;27.40;100194.64;124596;1105;104310;-79
2021/03/08 08:54:30;;;;;;;4.83;2.60;;;;;;;15.43;28.25;100197.34;124648;1105;104101;-81
2021/03/08 08:57:04;;;;;;;3.23;2.17;;;;;;;14.88;28.17;100200.20;124821;1105;104204;-80
2021/03/08 08:59:34;;;;;;;5.67;2.67;;;;;;;14.07;28.68;100201.53;124972;1106;104073;-80
2021/03/08 09:02:24;;;;;;;4.77;2.57;;;;;;;13.16;29.96;100208.28;124515;1106;104117;-80
2021/03/08 09:04:51;;;;;;;3.83;2.60;;;;;;;12.07;31.14;100220.59;124580;1105;104350;-79
2021/03/08 09:07:23;;;;;;;5.53;2.20;;;;;;;11.35;31.05;100224.13;124735;1109;104134;-80
2021/03/08 09:09:53;;;;;;;4.93;2.40;;;;;;;11.15;31.88;100219.62;125380;1105;104201;-80
2021/03/08 09:12:38;;;;;;;5.60;2.50;;;;;;;10.68;32.57;100227.28;124730;1105;104137;-80
2021/03/08 09:15:11;;;;;;;6.10;2.60;;;;;;;10.33;32.54;100227.56;124585;1105;104137;-79
2021/03/08 09:17:48;;;;;;;7.60;2.60;;;;;;;10.64;33.79;100230.91;124546;1105;104188;-80
2021/03/08 09:20:17;;;;;;;4.30;2.10;;;;;;;11.57;32.89;100226.81;124651;1105;104118;-80
2021/03/08 09:22:47;;;;;;;4.60;2.37;;;;;;;12.14;32.35;100220.34;124514;1105;104175;-80
2021/03/08 09:25:27;;;;;;;6.73;2.20;;;;;;;12.64;32.57;100218.33;124556;1109;104206;-80
2021/03/08 09:28:10;;;;;;;4.40;2.00;;;;;;;13.46;30.93;100222.66;124518;1109;104207;-81
2021/03/08 09:30:45;;;;;;;3.33;1.70;;;;;;;13.51;30.13;100220.71;124831;1105;104223;-81
2021/03/08 09:33:18;;;;;;;2.57;1.80;;;;;;;12.68;30.27;100220.74;124806;1109;104198;-80
2021/03/08 09:35:49;;;;;;;3.80;2.10;;;;;;;11.68;30.97;100228.14;124617;1106;104165;-80
2021/03/08 09:38:20;;;;;;;4.97;1.87;;;;;;;10.69;31.63;100231.59;124534;1109;104197;-79
2021/03/08 09:40:50;;;;;;;3.87;2.33;;;;;;;9.75;32.42;100247.52;124779;1106;104114;-80
2021/03/08 09:43:24;;;;;;;4.97;2.10;;;;;;;9.15;33.30;100248.28;124622;1109;103017;-80
2021/03/08 09:45:55;;;;;;;7.07;3.50;;;;;;;8.56;34.20;100256.70;124739;1105;104117;-80
2021/03/08 09:48:23;;;;;;;6.40;3.43;;;;;;;8.24;35.50;100257.40;124607;1105;103458;-80
2021/03/08 09:50:51;;;;;;;5.27;3.30;;;;;;;7.96;36.13;100261.50;124521;1109;104179;-80
2021/03/08 09:53:22;;;;;;;5.10;2.75;;;;;;;7.87;36.28;100257.34;124598;1109;104239;-80
2021/03/08 09:55:49;;;;;;;6.90;2.93;;;;;;;7.80;36.51;100263.56;124502;1106;104156;-80
2021/03/08 09:58:18;;;;;;;5.63;2.80;;;;;;;7.82;37.19;100269.58;124604;1105;104219;-79
2021/03/08 10:00:52;;;;;;;8.07;2.80;;;;;;;7.85;37.50;100267.77;124502;1106;104169;-79
2021/03/08 10:03:19;;;;;;;5.70;2.90;;;;;;;7.99;37.76;100271.82;124521;1108;104326;-79
2021/03/08 10:05:48;;;;;;;6.70;3.10;;;;;;;8.73;37.71;100271.89;124491;1106;104283;-80
2021/03/08 10:08:18;;;;;;;6.87;2.80;;;;;;;9.68;37.47;100272.87;124567;1105;104210;-80
2021/03/08 10:10:52;;;;;;;5.90;2.90;;;;;;;10.63;36.76;100260.50;124546;1105;104156;-80
2021/03/08 10:13:21;;;;;;;3.53;2.40;;;;;;;11.45;35.45;100262.05;124521;1105;104195;-81
2021/03/08 10:15:51;;;;;;;8.73;3.97;;;;;;;12.16;34.90;100257.73;124492;1105;102222;-80
2021/03/08 10:18:27;;;;;;;3.67;2.43;;;;;;;12.20;32.69;100252.31;124769;1108;104216;-80
2021/03/08 10:21:00;;;;;;;3.95;2.27;;;;;;;11.63;32.13;100250.09;124723;1105;104137;-80
2021/03/08 10:23:32;;;;;;;2.97;1.97;;;;;;;10.89;32.89;100268.31;124707;1106;104140;-80
2021/03/08 10:26:07;;;;;;;4.63;2.50;;;;;;;10.26;32.74;100277.29;124663;1106;104220;-80
2021/03/08 10:28:39;;;;;;;4.60;2.50;;;;;;;10.21;34.01;100273.09;124552;1105;103961;-80
2021/03/08 10:31:21;;;;;;;5.23;2.70;;;;;;;10.50;33.31;100269.60;124541;1109;104258;-80
2021/03/08 10:33:52;;;;;;;4.23;2.60;;;;;;;10.59;33.96;100275.39;124555;1106;104140;-80
2021/03/08 10:36:22;;;;;;;8.77;4.40;;;;;;;11.07;33.59;100281.66;124552;1105;104293;-80
2021/03/08 10:38:56;;;;;;;3.60;2.53;;;;;;;11.30;33.14;100279.10;124617;1105;104159;-81
2021/03/08 10:41:26;;;;;;;3.53;2.27;;;;;;;11.49;31.43;100264.52;124478;1109;104304;-80
2021/03/08 10:43:54;;;;;;;4.23;2.17;;;;;;;11.04;31.42;100268.71;124575;1109;104318;-79
2021/03/08 10:46:29;;;;;;;3.55;1.70;;;;;;;10.57;31.25;100268.50;124683;1105;104175;-80
2021/03/08 10:48:58;;;;;;;3.90;1.73;;;;;;;10.14;32.68;100272.41;124590;1109;104277;-79
2021/03/08 10:51:27;;;;;;;3.07;1.77;;;;;;;9.83;32.46;100276.80;124554;1106;104287;-80
2021/03/08 10:53:56;;;;;;;3.97;1.53;;;;;;;9.26;33.05;100287.91;124541;1109;104245;-79
2021/03/08 10:56:25;;;;;;;3.47;2.10;;;;;;;8.75;32.90;100285.71;124568;1105;104153;-80
2021/03/08 10:58:53;;;;;;;3.20;1.70;;;;;;;8.19;33.67;100290.43;124571;1105;104245;-80
2021/03/08 11:01:21;;;;;;;3.20;1.60;;;;;;;7.69;34.53;100302.70;124591;1108;102141;-79
2021/03/08 11:03:49;;;;;;;3.87;2.00;;;;;;;7.25;35.59;100296.61;124600;1106;104114;-79
2021/03/08 11:06:18;;;;;;;3.07;2.17;;;;;;;6.81;36.38;100299.08;124517;1105;104114;-79
2021/03/08 11:08:56;;;;;;;2.87;1.87;;;;;;;6.47;36.76;100298.77;124578;1105;103977;-79
2021/03/08 11:11:29;;;;;;;5.30;1.90;;;;;;;6.03;37.24;100306.25;124543;1105;104667;-79
2021/03/08 11:14:06;;;;;;;4.97;2.30;;;;;;;5.64;38.11;100311.87;124578;1109;102954;-79
2021/03/08 11:16:36;;;;;;;5.83;2.07;;;;;;;5.31;38.28;100319.09;124568;1108;102450;-79
2021/03/08 11:19:23;;;;;;;4.03;2.00;;;;;;;5.01;38.93;100312.46;124661;1105;104268;-79
2021/03/08 11:22:07;;;;;;;4.57;2.30;;;;;;;4.78;40.21;100315.23;124522;1109;104178;-79
2021/03/08 11:24:49;;;;;;;5.27;3.27;;;;;;;4.60;40.78;100317.95;124579;1105;104188;-79
2021/03/08 11:27:25;;;;;;;6.60;2.90;;;;;;;4.52;40.58;100317.16;124597;1105;104291;-79
2021/03/08 11:30:11;;;;;;;3.90;2.25;;;;;;;4.54;41.20;100325.75;124950;1105;102737;-79
2021/03/08 11:32:41;;;;;;;5.37;2.63;;;;;;;4.59;41.28;100313.66;124832;1105;104018;-79